Time;durP1;ratioP1;P1;durP2;ratioP2;P2;SDS_P1;SDS_P2;PMS_P1;PMS_P2;Temp;Humidity;BMP_temperature;BMP_pressure;BME280_temperature;BME280_humidity;BME280_pressure;Samples;Min_cycle;Max_cycle;Signal;HPM_P1;HPM_P2
2024/03/12 00:01:09;;;;;;;69.53;30.17;;;10.00;99.90;;;;;;7285012;19;20192;-79
2024/03/12 00:03:35;;;;;;;65.17;28.67;;;10.10;99.90;;;;;;7284910;19;20203;-79
2024/03/12 00:06:01;;;;;;;64.40;29.43;;;10.10;99.90;;;;;;7285672;19;20188;-79
2024/03/12 00:08:30;;;;;;;65.33;28.63;;;10.20;99.90;;;;;;7281302;19;20216;-78
2024/03/12 00:10:57;;;;;;;60.27;27.47;;;10.20;99.90;;;;;;7284754;19;20200;-78
2024/03/12 00:13:23;;;;;;;61.80;28.93;;;10.20;99.90;;;;;;7289830;19;20189;-78
2024/03/12 00:15:49;;;;;;;61.43;28.70;;;10.10;99.90;;;;;;7307396;19;20213;-78
2024/03/12 00:18:15;;;;;;;60.50;28.40;;;10.20;99.90;;;;;;7285273;19;20709;-78
2024/03/12 00:20:43;;;;;;;66.37;29.00;;;10.10;99.90;;;;;;7284160;19;20188;-78
2024/03/12 00:23:08;;;;;;;65.37;28.57;;;10.10;99.90;;;;;;7283297;19;20683;-77
2024/03/12 00:25:34;;;;;;;56.10;27.57;;;10.10;99.90;;;;;;7282885;19;20207;-78
2024/03/12 00:28:01;;;;;;;64.10;27.83;;;10.00;99.90;;;;;;7283398;19;20195;-78
2024/03/12 00:30:27;;;;;;;65.87;27.27;;;10.00;99.90;;;;;;7285065;19;20191;-78
2024/03/12 00:33:00;;;;;;;64.80;27.63;;;10.00;99.90;;;;;;7288967;19;20687;-78
2024/03/12 00:35:28;;;;;;;62.33;28.70;;;10.10;99.90;;;;;;7284236;19;20263;-78
2024/03/12 00:37:56;;;;;;;56.47;27.83;;;10.10;99.90;;;;;;7284333;19;20689;-77
2024/03/12 00:40:26;;;;;;;60.37;27.77;;;10.10;99.90;;;;;;7295330;19;20181;-78
2024/03/12 00:42:56;;;;;;;64.03;27.27;;;10.10;99.90;;;;;;7284357;19;20184;-78
2024/03/12 00:45:25;;;;;;;57.17;27.60;;;10.10;99.90;;;;;;7294043;19;20191;-78
2024/03/12 00:47:54;;;;;;;61.70;27.97;;;10.10;99.90;;;;;;7306207;19;20208;-78
2024/03/12 00:50:22;;;;;;;60.63;27.43;;;10.20;99.90;;;;;;7284162;19;20259;-78
2024/03/12 00:52:53;;;;;;;58.90;28.30;;;10.20;99.90;;;;;;7283876;19;20191;-78
2024/03/12 00:55:20;;;;;;;62.00;29.30;;;10.10;99.90;;;;;;7284567;19;20679;-78
2024/03/12 00:57:50;;;;;;;61.97;28.20;;;10.20;99.90;;;;;;7283443;19;20659;-78
2024/03/12 01:00:17;;;;;;;57.77;28.47;;;10.10;99.90;;;;;;7281965;19;20823;-78
2024/03/12 01:02:49;;;;;;;63.10;29.27;;;9.90;99.90;;;;;;7282881;19;20205;-77
2024/03/12 01:05:25;;;;;;;58.07;28.13;;;9.80;99.90;;;;;;7282574;19;20280;-78
2024/03/12 01:07:53;;;;;;;71.27;30.20;;;9.80;99.90;;;;;;7284124;19;20205;-78
2024/03/12 01:10:20;;;;;;;63.37;30.17;;;9.80;99.90;;;;;;7283408;19;20191;-78
2024/03/12 01:12:51;;;;;;;63.90;29.40;;;9.90;99.90;;;;;;7283603;19;20210;-78
2024/03/12 01:15:18;;;;;;;73.90;30.93;;;9.90;99.90;;;;;;7282794;19;20580;-78
2024/03/12 01:17:50;;;;;;;67.70;29.70;;;10.00;99.90;;;;;;7283566;19;20270;-78
2024/03/12 01:20:16;;;;;;;66.10;29.73;;;10.00;99.90;;;;;;7283794;19;20195;-78
2024/03/12 01:22:45;;;;;;;69.30;30.03;;;10.00;99.90;;;;;;7280644;19;20227;-78
2024/03/12 01:25:12;;;;;;;63.90;29.10;;;10.20;99.90;;;;;;7282787;19;20226;-78
2024/03/12 01:27:38;;;;;;;72.30;30.87;;;10.30;99.90;;;;;;7283492;19;20663;-78
2024/03/12 01:30:06;;;;;;;68.07;30.37;;;10.30;99.90;;;;;;7282205;19;20208;-78
2024/03/12 01:32:34;;;;;;;67.83;30.23;;;10.40;99.90;;;;;;7281150;19;20199;-78
2024/03/12 01:35:00;;;;;;;63.80;31.23;;;10.30;99.90;;;;;;7281286;19;20179;-78
2024/03/12 01:37:25;;;;;;;68.60;30.57;;;10.30;99.90;;;;;;7280743;19;20187;-78
2024/03/12 01:39:52;;;;;;;63.37;30.13;;;10.30;99.90;;;;;;7302886;19;20743;-78
2024/03/12 01:42:21;;;;;;;71.37;30.97;;;10.10;99.90;;;;;;7282401;19;20650;-78
2024/03/12 01:44:50;;;;;;;70.43;31.07;;;10.00;99.90;;;;;;7281789;19;20191;-79
2024/03/12 01:47:17;;;;;;;70.97;31.17;;;10.00;99.90;;;;;;7278714;19;20248;-78
2024/03/12 01:49:48;;;;;;;74.30;31.93;;;10.00;99.90;;;;;;7278842;19;20645;-78
2024/03/12 01:52:16;;;;;;;75.07;31.13;;;10.00;99.90;;;;;;7279602;19;20195;-78
2024/03/12 01:54:43;;;;;;;69.13;31.13;;;10.10;99.90;;;;;;7282147;19;20194;-78
2024/03/12 01:57:11;;;;;;;72.63;32.03;;;10.00;99.90;;;;;;7281403;19;20255;-79
2024/03/12 01:59:37;;;;;;;66.67;29.63;;;9.90;99.90;;;;;;7281361;19;20199;-78
2024/03/12 02:02:03;;;;;;;72.53;31.67;;;10.10;99.90;;;;;;7280774;19;20219;-78
2024/03/12 02:04:29;;;;;;;70.17;31.63;;;10.10;99.90;;;;;;7280407;19;20188;-79
2024/03/12 02:06:54;;;;;;;75.50;31.10;;;10.20;99.90;;;;;;7280624;19;20192;-78
2024/03/12 02:09:21;;;;;;;65.20;30.10;;;10.20;99.90;;;;;;7303186;19;20185;-78
2024/03/12 02:11:50;;;;;;;67.57;29.50;;;10.00;99.90;;;;;;7281699;19;20197;-78
2024/03/12 02:14:17;;;;;;;66.93;31.63;;;10.00;99.90;;;;;;7281876;19;20189;-78
2024/03/12 02:16:44;;;;;;;66.33;31.23;;;10.10;99.90;;;;;;7281937;19;20194;-78
2024/03/12 02:19:10;;;;;;;72.67;32.03;;;10.00;99.90;;;;;;7281633;19;20191;-78
2024/03/12 02:21:35;;;;;;;63.00;31.43;;;10.00;99.90;;;;;;7283325;19;20185;-78
2024/03/12 02:24:01;;;;;;;71.03;30.43;;;10.00;99.90;;;;;;7280562;19;20199;-77
2024/03/12 02:26:27;;;;;;;71.63;32.47;;;9.70;99.90;;;;;;7280410;19;20662;-78
2024/03/12 02:28:52;;;;;;;71.43;31.17;;;9.70;99.90;;;;;;7291771;19;20188;-78
2024/03/12 02:31:19;;;;;;;74.03;30.03;;;9.70;99.90;;;;;;7301362;19;20195;-77
2024/03/12 02:33:45;;;;;;;68.20;31.90;;;9.70;99.90;;;;;;7287134;19;21001;-78
2024/03/12 02:36:11;;;;;;;71.10;31.80;;;9.60;99.90;;;;;;7287142;19;20214;-78
2024/03/12 02:38:38;;;;;;;71.20;31.17;;;9.50;99.90;;;;;;7287716;19;20214;-78
2024/03/12 02:41:07;;;;;;;68.97;31.07;;;9.50;99.90;;;;;;7287778;19;20187;-78
2024/03/12 02:43:33;;;;;;;71.93;31.47;;;9.60;99.90;;;;;;7288989;19;20192;-78
2024/03/12 02:45:59;;;;;;;74.97;32.77;;;9.60;99.90;;;;;;7289253;19;20248;-79
2024/03/12 02:48:25;;;;;;;69.00;31.90;;;9.60;99.90;;;;;;7289521;19;20193;-78
2024/03/12 02:50:51;;;;;;;60.20;30.00;;;9.70;99.90;;;;;;7308463;19;20979;-78
2024/03/12 02:53:17;;;;;;;69.17;31.07;;;9.70;99.90;;;;;;7289723;19;20181;-79
2024/03/12 02:55:43;;;;;;;75.83;30.93;;;9.80;99.90;;;;;;7289657;19;20198;-78
2024/03/12 02:58:08;;;;;;;64.97;28.97;;;9.80;99.90;;;;;;7288284;19;20190;-78
2024/03/12 03:00:35;;;;;;;69.07;29.77;;;9.80;99.90;;;;;;7287778;19;20185;-78
2024/03/12 03:03:02;;;;;;;65.07;30.50;;;9.70;99.90;;;;;;7287830;19;20183;-78
2024/03/12 03:05:28;;;;;;;62.63;29.90;;;9.70;99.90;;;;;;7285020;19;20611;-77
2024/03/12 03:07:54;;;;;;;70.93;29.30;;;9.70;99.90;;;;;;7289280;19;20589;-78
2024/03/12 03:10:20;;;;;;;63.30;29.90;;;9.80;99.90;;;;;;7309548;19;20198;-78
2024/03/12 03:12:47;;;;;;;66.90;30.60;;;9.70;99.90;;;;;;7287002;19;20177;-78
2024/03/12 03:15:13;;;;;;;68.73;32.37;;;9.80;99.90;;;;;;7287573;19;20665;-78
2024/03/12 03:17:40;;;;;;;65.97;30.13;;;9.90;99.90;;;;;;7287247;19;20181;-77
2024/03/12 03:20:11;;;;;;;64.33;31.23;;;10.00;99.90;;;;;;7285976;19;20204;-78
2024/03/12 03:22:37;;;;;;;67.23;31.17;;;10.00;99.90;;;;;;7286853;19;20201;-78
2024/03/12 03:25:04;;;;;;;67.13;32.87;;;10.10;99.90;;;;;;7284875;19;20578;-78
2024/03/12 03:27:30;;;;;;;68.20;33.00;;;10.00;99.90;;;;;;7284856;19;20648;-78
2024/03/12 03:29:57;;;;;;;67.23;32.73;;;10.10;99.90;;;;;;7285976;19;20197;-78
2024/03/12 03:32:24;;;;;;;77.27;33.90;;;10.00;99.90;;;;;;7302385;19;20530;-78
2024/03/12 03:34:49;;;;;;;69.77;32.73;;;10.00;99.90;;;;;;7309477;19;20293;-78
2024/03/12 03:37:15;;;;;;;67.20;33.83;;;9.90;99.90;;;;;;7284360;19;20813;-78
2024/03/12 03:39:41;;;;;;;73.03;33.53;;;10.00;99.90;;;;;;7284620;19;20208;-78
2024/03/12 03:42:07;;;;;;;74.53;34.33;;;9.90;99.90;;;;;;7284105;19;20241;-77
2024/03/12 03:44:32;;;;;;;68.20;31.50;;;9.90;99.90;;;;;;7281966;19;20191;-78
2024/03/12 03:46:58;;;;;;;68.17;32.50;;;10.00;99.90;;;;;;7284817;19;20182;-77
2024/03/12 03:49:24;;;;;;;69.63;31.60;;;9.90;99.90;;;;;;7289034;19;20555;-78
2024/03/12 03:51:50;;;;;;;71.37;33.10;;;9.80;99.90;;;;;;7306481;19;20192;-78
2024/03/12 03:54:16;;;;;;;71.30;33.13;;;9.80;99.90;;;;;;7287411;19;20600;-78
2024/03/12 03:56:45;;;;;;;67.27;33.47;;;9.90;99.90;;;;;;7285022;19;20327;-77
2024/03/12 03:59:15;;;;;;;75.03;32.27;;;9.90;99.90;;;;;;7286075;19;20521;-78
2024/03/12 04:01:41;;;;;;;71.00;31.80;;;9.90;99.90;;;;;;7285345;19;20189;-78
2024/03/12 04:04:10;;;;;;;68.53;33.17;;;9.90;99.90;;;;;;7283952;19;20199;-78
2024/03/12 04:06:37;;;;;;;80.37;34.87;;;9.90;99.90;;;;;;7284998;19;20187;-78
2024/03/12 04:09:06;;;;;;;79.23;33.50;;;10.00;99.90;;;;;;7285873;19;20216;-78
2024/03/12 04:11:33;;;;;;;66.03;32.00;;;10.00;99.90;;;;;;7284311;19;20751;-78
2024/03/12 04:13:59;;;;;;;69.70;32.73;;;9.90;99.90;;;;;;7285026;19;20204;-78
2024/03/12 04:16:25;;;;;;;69.33;33.50;;;9.90;99.90;;;;;;7284918;19;20209;-78
2024/03/12 04:18:51;;;;;;;68.50;33.73;;;9.80;99.90;;;;;;7306172;19;20574;-78
2024/03/12 04:21:17;;;;;;;70.43;33.17;;;9.80;99.90;;;;;;7284311;19;20701;-78
2024/03/12 04:23:44;;;;;;;70.50;33.23;;;9.90;99.90;;;;;;7285043;19;20185;-78
2024/03/12 04:26:10;;;;;;;74.37;33.30;;;9.90;99.90;;;;;;7285166;19;20184;-78
2024/03/12 04:28:38;;;;;;;71.93;33.47;;;10.00;99.90;;;;;;7284019;19;20264;-78
2024/03/12 04:31:07;;;;;;;76.60;34.27;;;10.00;99.90;;;;;;7284440;19;20195;-78
2024/03/12 04:33:34;;;;;;;73.77;34.10;;;10.10;99.90;;;;;;7282797;19;20299;-78
2024/03/12 04:36:00;;;;;;;76.13;35.97;;;10.10;99.90;;;;;;7283441;19;20196;-78
2024/03/12 04:38:26;;;;;;;75.13;34.63;;;10.10;99.90;;;;;;7281561;19;20189;-78
2024/03/12 04:40:52;;;;;;;72.10;33.80;;;10.10;99.90;;;;;;7306663;19;20199;-78
2024/03/12 04:43:18;;;;;;;73.93;33.87;;;10.00;99.90;;;;;;7284692;19;20988;-78
2024/03/12 04:45:44;;;;;;;69.60;34.37;;;9.90;99.90;;;;;;7283766;19;20199;-78
2024/03/12 04:48:11;;;;;;;72.90;33.77;;;9.80;99.90;;;;;;7284125;19;20225;-78
2024/03/12 04:50:37;;;;;;;69.67;33.70;;;9.60;99.90;;;;;;7283310;19;20202;-78
2024/03/12 04:53:04;;;;;;;70.63;34.10;;;9.50;99.90;;;;;;7284249;19;20192;-78
2024/03/12 04:55:33;;;;;;;72.73;33.57;;;9.40;99.90;;;;;;7283467;19;20192;-78
2024/03/12 04:58:00;;;;;;;71.30;32.87;;;9.30;99.90;;;;;;7283090;19;20195;-78
2024/03/12 05:00:26;;;;;;;70.77;33.77;;;9.30;99.90;;;;;;7282360;19;20300;-78
2024/03/12 05:02:52;;;;;;;72.90;33.90;;;9.10;99.90;;;;;;7305326;19;20568;-78
2024/03/12 05:05:20;;;;;;;70.37;34.20;;;9.10;99.90;;;;;;7284177;19;20198;-78
2024/03/12 05:07:53;;;;;;;76.57;34.77;;;9.10;99.90;;;;;;7284042;19;20765;-78
2024/03/12 05:10:22;;;;;;;71.70;33.17;;;9.10;99.90;;;;;;7283280;19;20225;-78
2024/03/12 05:12:50;;;;;;;77.63;36.03;;;9.20;99.90;;;;;;7283500;19;20220;-78
2024/03/12 05:15:17;;;;;;;77.10;34.47;;;9.20;99.90;;;;;;7283906;19;20187;-78
2024/03/12 05:17:45;;;;;;;70.07;34.83;;;9.20;99.90;;;;;;7282812;19;20203;-78
2024/03/12 05:20:14;;;;;;;75.13;35.83;;;9.30;99.90;;;;;;7283616;19;20255;-78
2024/03/12 05:22:41;;;;;;;76.53;35.60;;;9.40;99.90;;;;;;7283021;19;20203;-78
2024/03/12 05:25:19;;;;;;;74.13;34.63;;;9.40;99.90;;;;;;7280140;19;20231;-78
2024/03/12 05:27:45;;;;;;;77.83;35.67;;;9.50;99.90;;;;;;7282172;19;20191;-78
2024/03/12 05:30:14;;;;;;;77.60;36.47;;;9.50;99.90;;;;;;7280346;19;20195;-78
2024/03/12 05:32:53;;;;;;;73.33;34.57;;;9.40;99.90;;;;;;7283665;19;20644;-78
2024/03/12 05:35:22;;;;;;;82.77;36.87;;;9.40;99.90;;;;;;7284722;19;20657;-78
2024/03/12 05:38:02;;;;;;;78.03;36.23;;;9.40;99.90;;;;;;7282399;19;20199;-78
2024/03/12 05:41:25;;;;;;;78.40;35.57;;;9.40;99.90;;;;;;7182568;19;2004563;-78
2024/03/12 05:48:52;;;;;;;80.93;36.23;;;9.30;99.90;;;;;;7281696;19;20312;-78
2024/03/12 05:51:21;;;;;;;71.63;33.93;;;9.30;99.90;;;;;;7283652;19;20191;-78
2024/03/12 05:53:49;;;;;;;78.97;36.07;;;9.20;99.90;;;;;;7280355;19;20190;-78
2024/03/12 05:56:15;;;;;;;74.60;35.90;;;9.20;99.90;;;;;;7282562;19;20237;-78
2024/03/12 05:58:40;;;;;;;81.10;35.83;;;9.20;99.90;;;;;;7282905;19;20196;-78
2024/03/12 06:01:06;;;;;;;77.43;36.83;;;9.10;99.90;;;;;;7282916;19;20207;-78
2024/03/12 06:03:32;;;;;;;74.93;35.73;;;9.00;99.90;;;;;;7282290;19;20196;-78
2024/03/12 06:05:58;;;;;;;73.90;35.13;;;9.00;99.90;;;;;;7283194;19;20196;-78
2024/03/12 06:08:24;;;;;;;78.50;36.77;;;8.90;99.90;;;;;;7294701;19;20658;-77
2024/03/12 06:10:51;;;;;;;80.93;34.60;;;9.00;99.90;;;;;;7310125;19;20215;-78
2024/03/12 06:13:17;;;;;;;72.20;34.00;;;9.10;99.90;;;;;;7288020;19;20187;-78
2024/03/12 06:15:44;;;;;;;74.83;36.07;;;9.10;99.90;;;;;;7287975;19;20670;-78
2024/03/12 06:18:12;;;;;;;83.63;36.80;;;9.20;99.90;;;;;;7288003;19;20190;-78
2024/03/12 06:20:37;;;;;;;81.63;35.70;;;9.20;99.90;;;;;;7289721;19;20218;-78
2024/03/12 06:23:03;;;;;;;81.17;35.63;;;9.20;99.90;;;;;;7286393;19;20188;-78
2024/03/12 06:25:29;;;;;;;77.43;35.80;;;9.10;99.90;;;;;;7283316;19;20532;-80
2024/03/12 06:27:59;;;;;;;70.50;33.10;;;9.10;99.90;;;;;;7287032;19;20192;-79
2024/03/12 06:30:25;;;;;;;71.17;34.00;;;9.20;99.90;;;;;;7287033;19;20193;-77
2024/03/12 06:32:51;;;;;;;71.07;34.50;;;9.10;99.90;;;;;;7308656;19;20200;-76
2024/03/12 06:35:17;;;;;;;73.53;34.10;;;9.20;99.90;;;;;;7286945;19;20222;-78
2024/03/12 06:37:42;;;;;;;74.00;33.63;;;9.20;99.90;;;;;;7287947;19;20196;-78
2024/03/12 06:40:09;;;;;;;70.83;33.03;;;9.20;99.90;;;;;;7288837;19;20196;-78
2024/03/12 06:42:35;;;;;;;73.77;34.67;;;9.20;99.90;;;;;;7287661;19;20221;-78
2024/03/12 06:45:02;;;;;;;68.70;34.17;;;9.30;99.90;;;;;;7287026;19;20828;-78
2024/03/12 06:47:32;;;;;;;64.70;32.20;;;9.50;99.90;;;;;;7288309;19;20651;-78
2024/03/12 06:49:59;;;;;;;70.57;32.93;;;9.60;99.90;;;;;;7287221;19;20211;-80
2024/03/12 06:52:26;;;;;;;64.57;32.67;;;9.70;99.90;;;;;;7289268;19;20663;-78
2024/03/12 06:54:52;;;;;;;69.10;32.93;;;9.80;99.90;;;;;;7307032;19;20273;-77
2024/03/12 06:57:21;;;;;;;66.60;32.90;;;9.90;99.90;;;;;;7286367;19;20195;-78
2024/03/12 06:59:49;;;;;;;68.87;32.80;;;9.90;99.90;;;;;;7287322;19;20187;-78
2024/03/12 07:02:17;;;;;;;68.27;33.03;;;10.00;99.90;;;;;;7288269;19;20222;-79
2024/03/12 07:04:44;;;;;;;64.43;31.07;;;9.80;99.90;;;;;;7285602;19;20313;-78
2024/03/12 07:07:13;;;;;;;65.43;32.87;;;9.90;99.90;;;;;;7285083;19;20655;-76
2024/03/12 07:09:41;;;;;;;70.13;31.57;;;9.80;99.90;;;;;;7283425;19;20211;-76
2024/03/12 07:12:08;;;;;;;61.67;30.93;;;9.80;99.90;;;;;;7286624;19;20198;-77
2024/03/12 07:14:42;;;;;;;65.30;32.43;;;9.80;99.90;;;;;;7285615;19;20187;-77
2024/03/12 07:17:09;;;;;;;61.03;31.70;;;9.80;99.90;;;;;;7283236;19;20539;-77
2024/03/12 07:19:39;;;;;;;63.77;32.33;;;9.90;99.90;;;;;;7286420;19;20224;-77
2024/03/12 07:22:07;;;;;;;71.27;32.30;;;9.90;99.90;;;;;;7286614;19;20201;-80
2024/03/12 07:24:36;;;;;;;56.17;30.87;;;10.00;99.90;;;;;;7285802;19;20195;-81
2024/03/12 07:27:05;;;;;;;61.57;31.07;;;10.00;99.90;;;;;;7284957;19;20290;-77
2024/03/12 07:29:34;;;;;;;63.40;31.77;;;9.90;99.90;;;;;;7283249;19;21070;-78
2024/03/12 07:32:04;;;;;;;63.30;32.23;;;10.00;99.90;;;;;;7282973;19;20228;-79
2024/03/12 07:34:31;;;;;;;63.00;31.47;;;10.10;99.90;;;;;;7283781;19;20205;-81
2024/03/12 07:37:00;;;;;;;62.63;31.43;;;10.20;99.90;;;;;;7284536;19;20208;-79
2024/03/12 07:39:31;;;;;;;60.63;31.57;;;10.20;99.90;;;;;;7283245;19;20238;-77
2024/03/12 07:42:05;;;;;;;61.60;31.50;;;10.10;99.90;;;;;;7284109;19;20192;-77
2024/03/12 07:44:32;;;;;;;59.20;31.27;;;10.10;99.90;;;;;;7285719;19;20215;-78
2024/03/12 07:46:58;;;;;;;60.43;30.27;;;10.10;99.90;;;;;;7285222;19;20201;-78
2024/03/12 07:49:24;;;;;;;62.37;31.10;;;10.10;99.90;;;;;;7293387;19;20188;-80
2024/03/12 07:51:51;;;;;;;62.27;30.90;;;10.10;99.90;;;;;;7306227;19;20227;-79
2024/03/12 07:54:19;;;;;;;59.83;29.70;;;10.10;99.90;;;;;;7285891;19;20724;-80
2024/03/12 07:56:48;;;;;;;61.07;29.67;;;10.00;99.90;;;;;;7285098;19;20252;-80
2024/03/12 07:59:16;;;;;;;54.57;29.67;;;10.00;99.90;;;;;;7283491;19;20265;-78
2024/03/12 08:01:44;;;;;;;64.07;31.37;;;10.10;99.90;;;;;;7283788;19;20285;-79
2024/03/12 08:04:10;;;;;;;56.63;30.87;;;10.10;99.90;;;;;;7284267;19;20207;-81
2024/03/12 08:06:36;;;;;;;61.90;30.63;;;10.10;99.90;;;;;;7283328;19;20291;-81
2024/03/12 08:09:04;;;;;;;61.50;30.30;;;10.10;99.90;;;;;;7284942;19;20244;-81
2024/03/12 08:11:31;;;;;;;56.93;31.17;;;10.10;99.90;;;;;;7284369;19;20224;-81
2024/03/12 08:13:57;;;;;;;60.77;31.70;;;10.20;99.90;;;;;;7283916;19;20185;-80
2024/03/12 08:16:22;;;;;;;59.73;30.80;;;10.20;99.90;;;;;;7306527;19;20644;-81
2024/03/12 08:18:49;;;;;;;61.60;31.90;;;10.30;99.90;;;;;;7282048;19;20750;-81
2024/03/12 08:21:16;;;;;;;58.47;31.07;;;10.30;99.90;;;;;;7283937;19;20285;-79
2024/03/12 08:23:42;;;;;;;64.47;31.93;;;10.40;99.90;;;;;;7280527;19;20200;-76
2024/03/12 08:26:08;;;;;;;67.47;33.97;;;10.50;99.90;;;;;;7279275;19;20193;-76
2024/03/12 08:28:34;;;;;;;60.73;32.53;;;10.60;99.90;;;;;;7280328;19;20200;-81
2024/03/12 08:31:02;;;;;;;57.90;31.53;;;10.50;99.90;;;;;;7282591;19;20193;-79
2024/03/12 08:33:28;;;;;;;63.10;30.83;;;10.60;99.90;;;;;;7284369;19;20213;-80
2024/03/12 08:35:54;;;;;;;63.77;33.60;;;10.50;99.90;;;;;;7298213;19;20185;-79
2024/03/12 08:38:19;;;;;;;63.93;31.60;;;10.60;99.90;;;;;;7298411;19;20207;-79
2024/03/12 08:40:45;;;;;;;56.23;29.80;;;10.50;99.90;;;;;;7284096;19;20324;-78
2024/03/12 08:43:12;;;;;;;63.23;31.87;;;10.40;99.90;;;;;;7285758;19;20188;-79
2024/03/12 08:45:39;;;;;;;63.67;32.23;;;10.40;99.90;;;;;;7285275;19;20195;-79
2024/03/12 08:48:06;;;;;;;60.63;31.43;;;10.40;99.90;;;;;;7284197;19;20320;-79
2024/03/12 08:50:32;;;;;;;66.67;32.57;;;10.50;99.90;;;;;;7283005;19;20516;-79
2024/03/12 08:52:58;;;;;;;58.73;30.37;;;10.40;99.90;;;;;;7284054;19;20188;-79
2024/03/12 08:55:24;;;;;;;64.30;31.10;;;10.20;99.90;;;;;;7294775;19;20181;-78
2024/03/12 08:57:51;;;;;;;63.27;32.43;;;10.20;99.90;;;;;;7301096;19;20606;-78
2024/03/12 09:00:18;;;;;;;61.60;32.83;;;10.20;99.90;;;;;;7282370;19;20199;-79
2024/03/12 09:02:45;;;;;;;64.97;32.40;;;10.20;99.90;;;;;;7282969;19;20194;-79
2024/03/12 09:05:12;;;;;;;64.27;33.53;;;10.30;99.90;;;;;;7283790;19;20192;-78
2024/03/12 09:07:38;;;;;;;64.00;32.53;;;10.40;99.90;;;;;;7284383;19;20531;-79
2024/03/12 09:10:12;;;;;;;62.53;31.93;;;10.40;99.90;;;;;;7281732;19;20188;-79
2024/03/12 09:12:40;;;;;;;68.37;33.57;;;10.40;99.90;;;;;;7281610;19;20191;-78
2024/03/12 09:15:08;;;;;;;68.27;34.57;;;10.50;99.90;;;;;;7279897;19;20193;-79
2024/03/12 09:17:39;;;;;;;66.90;34.33;;;10.60;99.90;;;;;;7282644;19;20336;-78
2024/03/12 09:20:09;;;;;;;67.17;33.87;;;10.80;99.90;;;;;;7282958;19;20197;-78
2024/03/12 09:22:39;;;;;;;66.37;34.10;;;10.90;99.90;;;;;;7282607;19;20193;-78
2024/03/12 09:25:05;;;;;;;76.50;37.67;;;11.10;99.90;;;;;;7281899;19;20196;-78
2024/03/12 09:27:32;;;;;;;67.63;36.23;;;11.20;99.90;;;;;;7283431;19;20551;-78
2024/03/12 09:29:57;;;;;;;71.60;36.63;;;11.40;99.90;;;;;;7281983;19;20291;-78
2024/03/12 09:32:24;;;;;;;68.27;34.10;;;11.60;99.90;;;;;;7303591;19;20758;-79
2024/03/12 09:34:53;;;;;;;72.70;36.83;;;11.60;99.90;;;;;;7284405;19;20189;-78
2024/03/12 09:37:19;;;;;;;65.60;34.10;;;11.80;99.90;;;;;;7280978;19;20539;-79
2024/03/12 09:39:45;;;;;;;71.27;35.50;;;12.00;99.90;;;;;;7282491;19;20189;-79
2024/03/12 09:42:17;;;;;;;68.13;37.17;;;12.30;99.90;;;;;;7286888;19;20193;-79
2024/03/12 09:44:43;;;;;;;73.77;37.37;;;12.30;99.90;;;;;;7287898;19;20189;-78
2024/03/12 09:47:10;;;;;;;69.40;36.67;;;12.10;99.90;;;;;;7289822;19;20220;-78
2024/03/12 09:49:36;;;;;;;66.03;35.47;;;11.90;99.90;;;;;;7290783;19;20190;-79
2024/03/12 09:52:05;;;;;;;71.83;36.53;;;11.90;99.90;;;;;;7287468;19;20776;-78
2024/03/12 09:54:32;;;;;;;77.07;38.10;;;12.10;99.90;;;;;;7288673;19;20622;-78
2024/03/12 09:56:59;;;;;;;74.20;36.93;;;12.30;99.90;;;;;;7287448;19;20216;-79
2024/03/12 09:59:25;;;;;;;77.30;37.67;;;12.50;99.90;;;;;;7296952;19;20205;-78
2024/03/12 10:01:51;;;;;;;71.43;38.23;;;12.60;99.90;;;;;;7311489;19;20189;-78
2024/03/12 10:04:20;;;;;;;73.87;38.23;;;12.60;99.90;;;;;;7286940;19;20190;-79
2024/03/12 10:06:45;;;;;;;74.90;38.40;;;12.60;99.90;;;;;;7287957;19;20181;-79
2024/03/12 10:09:18;;;;;;;78.83;38.93;;;12.60;99.90;;;;;;7287967;19;20673;-79
2024/03/12 10:11:44;;;;;;;77.43;39.37;;;12.50;99.90;;;;;;7287069;19;20238;-77
2024/03/12 10:14:12;;;;;;;79.87;39.97;;;12.30;99.90;;;;;;7285373;19;20553;-77
2024/03/12 10:16:40;;;;;;;81.10;42.23;;;12.50;99.90;;;;;;7285905;19;20190;-77
2024/03/12 10:19:18;;;;;;;83.23;41.93;;;12.60;99.90;;;;;;7285837;19;21049;-77
2024/03/12 10:21:49;;;;;;;75.43;40.40;;;12.70;99.90;;;;;;7285097;19;20834;-77
2024/03/12 10:24:21;;;;;;;83.27;40.17;;;12.90;99.90;;;;;;7284606;19;20204;-78
2024/03/12 10:26:48;;;;;;;75.90;39.80;;;13.20;99.90;;;;;;7285599;19;20194;-77
2024/03/12 10:29:19;;;;;;;78.37;39.50;;;13.60;99.90;;;;;;7284697;19;20343;-77
2024/03/12 10:31:46;;;;;;;75.73;38.53;;;13.70;99.90;;;;;;7284696;19;20192;-77
2024/03/12 10:34:17;;;;;;;65.50;36.27;;;14.00;99.90;;;;;;7285650;19;20205;-78
2024/03/12 10:36:44;;;;;;;68.03;36.93;;;14.10;99.90;;;;;;7283729;19;20194;-77
2024/03/12 10:39:14;;;;;;;68.47;36.97;;;14.20;99.90;;;;;;7284588;19;20189;-77
2024/03/12 10:41:44;;;;;;;65.90;36.37;;;14.30;99.90;;;;;;7284041;19;20181;-77
2024/03/12 10:44:10;;;;;;;67.93;34.87;;;14.30;99.90;;;;;;7284944;19;20189;-77
2024/03/12 10:46:40;;;;;;;62.43;34.90;;;13.90;99.90;;;;;;7285400;19;20188;-77
2024/03/12 10:49:12;;;;;;;67.17;35.33;;;13.70;99.90;;;;;;7282662;19;20629;-77
2024/03/12 10:51:43;;;;;;;69.90;35.43;;;13.70;99.90;;;;;;7282940;19;20270;-82
2024/03/12 10:54:21;;;;;;;64.10;33.43;;;13.70;99.90;;;;;;7285025;19;20188;-77
2024/03/12 10:56:47;;;;;;;65.27;34.73;;;13.80;99.90;;;;;;7283554;19;20735;-77
2024/03/12 10:59:16;;;;;;;60.17;33.57;;;14.00;99.90;;;;;;7287132;19;20679;-77
2024/03/12 11:01:43;;;;;;;53.53;31.87;;;14.20;99.90;;;;;;7281890;19;20192;-77
2024/03/12 11:04:10;;;;;;;62.33;31.57;;;14.20;99.90;;;;;;7283403;19;21001;-77
2024/03/12 11:06:37;;;;;;;52.87;29.90;;;14.40;99.90;;;;;;7282768;19;20190;-77
2024/03/12 11:09:04;;;;;;;53.40;28.57;;;14.60;99.90;;;;;;7282504;19;20541;-77
2024/03/12 11:11:34;;;;;;;52.87;28.97;;;14.40;99.90;;;;;;7281646;19;20754;-76
2024/03/12 11:14:04;;;;;;;47.87;26.00;;;14.40;99.90;;;;;;7284295;19;20182;-77
2024/03/12 11:16:34;;;;;;;46.47;26.37;;;14.30;99.90;;;;;;7283238;19;20188;-76
2024/03/12 11:19:26;;;;;;;50.47;27.33;;;14.30;99.90;;;;;;7282100;19;20199;-77
2024/03/12 11:21:52;;;;;;;46.50;25.57;;;14.10;99.90;;;;;;7283456;19;20691;-77
2024/03/12 11:24:44;;;;;;;43.97;25.00;;;14.40;99.90;;;;;;7283962;19;20184;-77
2024/03/12 11:27:19;;;;;;;44.13;25.17;;;14.50;99.90;;;;;;7180931;19;2005992;-77
2024/03/12 11:30:03;;;;;;;51.20;29.40;;;14.70;99.90;;;;;;7284136;19;20189;-78
2024/03/12 11:32:38;;;;;;;41.60;24.63;;;14.90;99.90;;;;;;7171463;19;2004460;-77
2024/03/12 11:35:27;;;;;;;46.87;25.07;;;15.20;99.90;;;;;;7280315;19;20283;-78
2024/03/12 11:38:02;;;;;;;43.50;24.57;;;15.30;99.90;;;;;;7277753;19;20765;-77
2024/03/12 11:40:38;;;;;;;42.70;24.07;;;15.20;99.90;;;;;;7258064;19;20846;-78
2024/03/12 11:43:04;;;;;;;43.50;23.80;;;14.90;99.90;;;;;;7278591;19;20240;-77
2024/03/12 11:45:48;;;;;;;49.43;25.83;;;14.70;99.90;;;;;;7277894;19;20199;-77
2024/03/12 11:48:21;;;;;;;43.30;23.87;;;14.50;99.90;;;;;;7278610;19;20616;-77
2024/03/12 11:50:52;;;;;;;47.17;25.57;;;14.30;99.90;;;;;;7277430;19;20200;-77
2024/03/12 11:53:28;;;;;;;47.23;26.17;;;14.20;99.90;;;;;;7277551;19;20272;-78
2024/03/12 11:56:00;;;;;;;48.40;26.27;;;14.20;99.90;;;;;;7280394;19;20188;-78
2024/03/12 11:58:31;;;;;;;51.77;26.53;;;13.90;99.90;;;;;;7259573;19;20187;-77
2024/03/12 12:01:01;;;;;;;48.03;26.90;;;13.90;99.90;;;;;;7278584;19;20184;-77
2024/03/12 12:03:27;;;;;;;52.37;27.03;;;13.70;99.90;;;;;;7274321;19;20618;-78
2024/03/12 12:05:54;;;;;;;52.00;28.00;;;13.40;99.90;;;;;;7301106;19;20696;-77
2024/03/12 12:08:21;;;;;;;52.63;28.40;;;13.30;99.90;;;;;;7280334;19;21015;-78
2024/03/12 12:10:58;;;;;;;54.40;28.77;;;13.20;99.90;;;;;;7277181;19;20249;-77
2024/03/12 12:13:24;;;;;;;53.80;28.73;;;13.00;99.90;;;;;;7279719;19;20539;-77
2024/03/12 12:15:57;;;;;;;50.70;28.70;;;12.90;99.90;;;;;;7278844;19;20182;-77
2024/03/12 12:18:25;;;;;;;58.30;28.70;;;12.80;99.90;;;;;;7277128;19;20852;-77
2024/03/12 12:20:52;;;;;;;58.30;28.63;;;13.00;99.90;;;;;;7278346;19;20579;-78
2024/03/12 12:23:18;;;;;;;50.90;26.37;;;13.20;99.90;;;;;;7277880;19;20208;-77
2024/03/12 12:25:53;;;;;;;47.70;24.03;;;13.20;99.90;;;;;;7278809;19;22405;-78
2024/03/12 12:28:24;;;;;;;44.47;25.67;;;13.20;99.90;;;;;;7278590;19;20197;-78
2024/03/12 12:31:00;;;;;;;46.07;25.60;;;13.40;99.90;;;;;;7278951;19;20203;-77
2024/03/12 12:33:32;;;;;;;43.90;24.33;;;13.50;99.90;;;;;;7256475;19;20197;-77
2024/03/12 12:36:05;;;;;;;46.83;24.33;;;13.60;99.90;;;;;;7277762;19;20196;-77
2024/03/12 12:38:37;;;;;;;45.60;24.57;;;13.70;99.90;;;;;;7278367;19;21019;-77
2024/03/12 12:41:08;;;;;;;36.83;21.90;;;13.70;99.90;;;;;;7277737;19;20227;-78